X  Sluiten METAR luchtvaart weer gegevens      KSWO Stillwater Regional Airport
Temperatuur
75°F Temperatuur
70°F Dauwpunt
83% Vochtigheid



Wind
10 MPH
16 KM/U
4 M/S
9 KTS



360°
N
Huidig weer

Grotendeels bewolkt Grotendeels bewolkt
Luchtdruk 1015.62 (hPa) - 29.99 (inHg)
Zicht 10 (mijl) - 16.1 (km)
Vliegveld
Vliegveld code KSWO

Locatie : Stillwater Regional Airport
Afstand: 4 (mi)

Metar:
KSWO 170637Z AUTO 36009KT 10SM BKN018 24/21 A2999 RMK AO2 T02440206

Tijd: 08-17-2022 1:37 am CDT